Stations météo

réclame
Mon MeteoGroup
Paganella, Italie (16022): Température de l'air & dewpoint: 12.12.2017 17:00:00 - 18.12.2017 17:00:00 (CET)Paganella, Italie (16022): Vitesse du vent: 12.12.2017 17:00:00 - 18.12.2017 17:00:00 (CET)Paganella, Italie (16022): Direction du vent: 12.12.2017 17:00:00 - 18.12.2017 17:00:00 (CET)Paganella, Italie (16022): visibility: 12.12.2017 17:00:00 - 18.12.2017 17:00:00 (CET)Paganella, Italie (16022): Ensoleillement: 12.12.2017 17:00:00 - 18.12.2017 17:00:00 (CET)
Date & Time tt [°C] td [°C] ff [km/h] ff [knt] dd vv [km] sd [min]
18.12.2017 17:00:00 -10,0 -16,1 13 7 NNE 80 30
18.12.2017 16:00:00 -9,2 -15,0 9 5 N 80 60
18.12.2017 15:00:00 -9,0 -14,0 9 5 W 80 60
18.12.2017 14:00:00 -8,8 -13,5 9 5 SW 80 60
18.12.2017 13:00:00 -9,0 -14,0 15 8 SSW 80 54
18.12.2017 12:00:00 -9,2 -14,8 11 6 SW 80 -
18.12.2017 11:00:00 -9,2 -14,6 9 5 SSW 80 0
18.12.2017 10:00:00 -10,8 -16,3 11 6 SE 80 0
18.12.2017 09:00:00 -11,0 -16,7 9 5 SSW 80 6
18.12.2017 08:00:00 -11,3 -19,4 9 5 E 80 0
18.12.2017 07:00:00 -11,8 -19,0 11 6 NE 60 -
18.12.2017 06:00:00 -12,0 -18,2 4 2 N 60 -
18.12.2017 05:00:00 -12,0 -18,2 5 3 N 60 -
18.12.2017 04:00:00 -11,4 -17,6 8 4 N 60 -
18.12.2017 03:00:00 -11,4 -17,6 9 5 N 60 -
18.12.2017 02:00:00 -11,4 -17,2 8 4 N 60 -
18.12.2017 01:00:00 -11,6 -17,6 8 4 NNE 60 -
18.12.2017 00:00:00 -11,6 -16,8 5 3 N 60 -
17.12.2017 23:00:00 -11,4 -16,5 11 6 NNE 60 -
17.12.2017 22:00:00 -11,3 -16,6 11 6 NNE 60 -
17.12.2017 21:00:00 -11,1 -16,0 15 8 NNE 60 -
17.12.2017 20:00:00 -11,0 -16,1 24 13 N 60 -
17.12.2017 19:00:00 -10,9 -16,0 28 15 N 60 -
17.12.2017 18:00:00 -10,2 -14,8 28 15 N 60 -
17.12.2017 17:00:00 -10,0 -14,8 18 10 N 80 0
17.12.2017 16:00:00 -9,7 -14,8 24 13 N 80 48
17.12.2017 15:00:00 -9,4 -14,2 21 11 NW 80 60
17.12.2017 14:00:00 -9,7 -14,1 15 8 NNW 80 60
17.12.2017 13:00:00 -9,9 -14,7 21 11 WNW 80 60
17.12.2017 12:00:00 -10,0 -15,0 9 5 N 80 60
17.12.2017 11:00:00 -10,1 -14,9 13 7 N 80 60
17.12.2017 10:00:00 -10,2 -14,8 18 10 N 80 60
17.12.2017 09:00:00 -10,4 -14,8 18 10 N 80 36
17.12.2017 08:00:00 -10,4 -15,2 24 13 N 80 0
17.12.2017 07:00:00 -10,6 -15,0 16 9 N 60 -
17.12.2017 06:00:00 -10,7 -14,8 16 9 NNE 50 -
17.12.2017 05:00:00 -10,8 -14,7 28 15 N 50 -
17.12.2017 04:00:00 -10,8 -14,4 29 16 N 50 -
17.12.2017 03:00:00 -10,2 -14,4 29 16 N 40 -
17.12.2017 02:00:00 -10,0 -13,9 31 17 N 40 -
17.12.2017 01:00:00 -9,9 -13,3 26 14 N 40 -
17.12.2017 00:00:00 -9,8 -13,4 28 15 N 40 -
16.12.2017 23:00:00 -9,7 -13,5 22 12 N 40 -
16.12.2017 22:00:00 -9,3 -13,2 26 14 N 40 -
16.12.2017 21:00:00 -9,1 -13,4 24 13 N 40 -
16.12.2017 20:00:00 -9,0 -13,5 29 16 N 40 -
16.12.2017 19:00:00 -9,1 -13,7 24 13 N 40 -
16.12.2017 18:00:00 -8,8 -13,8 24 13 N 40 -
16.12.2017 17:00:00 -8,9 -14,3 26 14 N 60 18
16.12.2017 16:00:00 -8,7 -14,1 16 9 N 60 60
16.12.2017 15:00:00 -8,8 -14,0 18 10 N 60 60
16.12.2017 14:00:00 -9,0 -14,0 13 7 NNE 60 60
16.12.2017 13:00:00 -9,4 -14,8 24 13 N 60 60
16.12.2017 12:00:00 -9,7 -14,8 24 13 N 60 60
16.12.2017 11:00:00 -10,0 -15,0 34 18 N 60 60
16.12.2017 10:00:00 -10,2 -15,3 26 14 N 60 60
16.12.2017 09:00:00 -10,7 -15,5 29 16 N 60 6
16.12.2017 08:00:00 -10,8 -15,5 37 20 N 70 0
16.12.2017 07:00:00 -10,8 -15,4 31 17 N 40 -
16.12.2017 06:00:00 -10,8 -15,2 35 19 N 40 -
16.12.2017 05:00:00 -10,7 -15,3 39 21 N 40 -
16.12.2017 04:00:00 -10,5 -14,9 28 15 N 40 -
16.12.2017 03:00:00 -10,2 -15,0 26 14 N 50 -
16.12.2017 02:00:00 -10,0 -14,8 34 18 N 40 -
16.12.2017 01:00:00 -9,6 -13,9 35 19 N 40 -
16.12.2017 00:00:00 -9,4 -13,0 35 19 N 40 -
15.12.2017 23:00:00 -9,4 -12,7 34 18 N 40 -
15.12.2017 22:00:00 -8,6 -11,9 39 21 N 40 -
15.12.2017 21:00:00 -8,0 -11,0 41 22 N 30 -
15.12.2017 20:00:00 -6,8 -8,7 29 16 N 30 -
15.12.2017 19:00:00 -5,8 -8,4 28 15 N 30 -
15.12.2017 18:00:00 -4,8 -6,3 22 12 N - -
15.12.2017 17:00:00 -3,8 -6,3 16 9 NNW 0,1 0
15.12.2017 16:00:00 -2,0 -5,0 21 11 SSW 0,6 0
15.12.2017 15:00:00 -2,0 -5,0 26 14 SSW - 0
15.12.2017 14:00:00 -2,1 -5,4 31 17 SW - 0
15.12.2017 13:00:00 -1,3 -4,1 37 20 SW - 0
15.12.2017 12:00:00 -1,9 -4,4 13 7 SW - 0
15.12.2017 11:00:00 -2,0 -4,3 9 5 SW - 0
15.12.2017 10:00:00 -2,0 -4,2 11 6 SW - 0
15.12.2017 09:00:00 -2,0 -3,9 11 6 SW - 0
15.12.2017 08:00:00 -2,0 -4,3 16 9 SW - 0
15.12.2017 07:00:00 -2,4 -5,1 21 11 SW - -
15.12.2017 06:00:00 -2,6 -5,2 18 10 WSW - -
15.12.2017 05:00:00 -2,6 -5,1 22 12 SW - -
15.12.2017 04:00:00 -2,6 -4,9 26 14 SW - -
15.12.2017 03:00:00 -2,6 -4,9 22 12 SW - -
15.12.2017 02:00:00 -2,8 -5,1 28 15 SW - -
15.12.2017 01:00:00 -2,8 -5,1 24 13 SW - -
15.12.2017 00:00:00 -2,8 -5,0 29 16 SW - -
14.12.2017 23:00:00 -3,0 -5,5 31 17 SW - -
14.12.2017 22:00:00 -3,0 -5,8 35 19 SSW - -
14.12.2017 21:00:00 -3,0 -5,8 29 16 SW - -
14.12.2017 20:00:00 -3,2 -6,2 31 17 SW - -
14.12.2017 19:00:00 -3,2 -6,2 28 15 SSW 30 -
14.12.2017 18:00:00 -3,0 -6,1 31 17 SSW 40 -
14.12.2017 17:00:00 -2,4 -5,0 31 17 SSW 0,9 0
14.12.2017 16:00:00 -2,4 -4,9 34 18 SW - 0
14.12.2017 15:00:00 -3,0 -5,6 34 18 SW - 0
14.12.2017 14:00:00 -2,2 -4,9 29 16 SW - 0
14.12.2017 13:00:00 -2,4 -5,1 29 16 SW - 0
14.12.2017 12:00:00 -2,6 -5,3 35 19 SW 0,3 0
14.12.2017 11:00:00 -2,4 -4,9 35 19 SSW 0,3 0
14.12.2017 10:00:00 -3,2 -5,8 31 17 SSW 0,3 0
14.12.2017 09:00:00 -3,2 -5,8 39 21 SSW 0,3 0
14.12.2017 08:00:00 -3,2 -5,8 35 19 SSW - -
14.12.2017 07:00:00 -3,8 -6,3 35 19 SSW - -
14.12.2017 06:00:00 -4,0 -6,9 41 22 SSW - -
14.12.2017 05:00:00 -4,4 -7,3 39 21 SSW 10 -
14.12.2017 04:00:00 -4,8 -8,2 37 20 SSW 20 -
14.12.2017 03:00:00 -5,0 -8,2 39 21 SSW 0,3 -
14.12.2017 02:00:00 -5,0 -8,1 35 19 SSW 0,3 -
14.12.2017 01:00:00 -5,0 -7,6 35 19 SSW - -
14.12.2017 00:00:00 -5,0 -7,6 28 15 SSW - -
13.12.2017 23:00:00 -4,8 -7,2 22 12 SSW - -
13.12.2017 22:00:00 -4,8 -7,2 34 18 SSW - -
13.12.2017 21:00:00 -4,6 -7,0 28 15 SSW - -
13.12.2017 20:00:00 -4,2 -6,6 24 13 SSW - -
13.12.2017 19:00:00 -4,2 -6,5 26 14 SSW - -
13.12.2017 18:00:00 -4,0 -6,3 22 12 SW - -
13.12.2017 17:00:00 -3,6 -6,5 31 17 SSW - 0
13.12.2017 16:00:00 -3,4 -6,7 29 16 SSW 0,3 0
13.12.2017 15:00:00 -3,8 -7,1 26 14 SW 80 48
13.12.2017 14:00:00 -4,0 -7,3 24 13 WSW 75 60
13.12.2017 13:00:00 -4,0 -7,4 18 10 SW 75 60
13.12.2017 12:00:00 -4,0 -6,9 16 9 SSW 75 42
13.12.2017 11:00:00 -4,2 -7,1 13 7 SSW 75 0
13.12.2017 10:00:00 -5,0 -7,9 4 2 N 70 30
13.12.2017 09:00:00 -5,8 -8,8 9 5 E 70 48
13.12.2017 08:00:00 -5,0 -7,7 8 4 N 70 0
13.12.2017 07:00:00 -5,0 -7,1 13 7 NNW 0,9 -
13.12.2017 06:00:00 -4,8 -6,6 11 6 N - -
13.12.2017 05:00:00 -4,8 -6,3 9 5 NNE - -
13.12.2017 04:00:00 -3,8 -6,0 11 6 W - -
13.12.2017 03:00:00 -4,0 -6,1 9 5 W 0,9 -
13.12.2017 02:00:00 -3,8 -6,1 22 12 SW - -
13.12.2017 01:00:00 -3,8 -6,7 26 14 SSW - -
13.12.2017 00:00:00 -3,4 -6,7 26 14 SSW 0,9 -
12.12.2017 23:00:00 -3,4 -6,2 28 15 SW 0,7 -
12.12.2017 22:00:00 -3,0 -6,0 28 15 SW 0,9 -
12.12.2017 21:00:00 -3,0 -5,6 24 13 SW - -
12.12.2017 20:00:00 -2,6 -5,1 29 16 SW - -
12.12.2017 19:00:00 -2,4 -5,2 26 14 SW - -
12.12.2017 18:00:00 -2,2 -4,2 34 18 SW - -
12.12.2017 17:00:00 -2,0 -4,0 34 18 SW - 0

tt = Température de l'air
td = dewpoint
ff = Vitesse du vent
dd = Direction du vent
vv = visibility
sd = Ensoleillement

stations d'obs. à proximité